createdAt,value
2022-09-30T00:00:23.949Z,66.80
2022-09-30T00:03:20.575Z,67.01
2022-09-30T00:06:08.062Z,67.11
2022-09-30T00:08:45.679Z,66.97
2022-09-30T00:11:20.682Z,66.84
2022-09-30T00:13:55.835Z,66.99
2022-09-30T00:16:35.718Z,67.30
2022-09-30T00:19:09.537Z,67.39
2022-09-30T00:21:46.536Z,67.24
2022-09-30T00:24:24.923Z,67.44
2022-09-30T00:26:58.513Z,67.27
2022-09-30T00:29:32.314Z,67.21
2022-09-30T00:32:15.541Z,67.02
2022-09-30T00:34:59.504Z,66.85
2022-09-30T00:37:35.521Z,67.00
2022-09-30T00:40:20.673Z,67.19
2022-09-30T00:42:57.440Z,67.25
2022-09-30T00:45:47.498Z,67.38
2022-09-30T00:48:27.113Z,67.36
2022-09-30T00:51:07.452Z,67.52
2022-09-30T00:53:53.136Z,67.63
2022-09-30T00:56:29.910Z,67.53
2022-09-30T00:59:20.214Z,67.47
2022-09-30T01:01:57.508Z,67.37
2022-09-30T01:04:36.776Z,67.41
2022-09-30T01:07:16.214Z,67.52
2022-09-30T01:09:58.702Z,67.33
2022-09-30T01:12:53.352Z,67.30
2022-09-30T01:15:53.753Z,67.60
2022-09-30T01:18:56.679Z,67.42
2022-09-30T01:22:08.488Z,67.70
2022-09-30T01:25:02.398Z,67.72
2022-09-30T01:28:01.599Z,67.74
2022-09-30T01:30:55.614Z,67.66
2022-09-30T01:33:41.353Z,67.50
2022-09-30T01:36:31.167Z,67.54
2022-09-30T01:39:23.782Z,67.59
2022-09-30T01:42:12.017Z,67.77
2022-09-30T01:44:58.943Z,67.75
2022-09-30T01:47:44.356Z,67.66
2022-09-30T01:50:24.962Z,67.48
2022-09-30T01:53:11.717Z,67.47
2022-09-30T01:55:53.796Z,67.61
2022-09-30T01:58:39.408Z,67.49
2022-09-30T02:01:41.207Z,67.45
2022-09-30T02:04:21.353Z,67.54
2022-09-30T02:07:02.808Z,67.65
2022-09-30T02:09:43.840Z,67.73
2022-09-30T02:12:26.627Z,67.81
2022-09-30T02:15:08.061Z,67.76
2022-09-30T02:17:52.277Z,67.79
2022-09-30T02:20:34.256Z,67.95
2022-09-30T02:23:16.272Z,67.69
2022-09-30T02:25:55.467Z,67.68
2022-09-30T02:28:33.565Z,67.78
2022-09-30T02:31:11.507Z,67.83
2022-09-30T02:33:52.175Z,67.80
2022-09-30T02:36:31.819Z,67.95
2022-09-30T02:39:09.641Z,67.70
2022-09-30T02:41:46.570Z,67.67
2022-09-30T02:44:23.305Z,67.66
2022-09-30T02:47:17.638Z,67.75
2022-09-30T02:50:02.484Z,67.78
2022-09-30T02:52:55.593Z,67.52
2022-09-30T02:55:40.925Z,67.42
2022-09-30T02:58:16.452Z,67.46
2022-09-30T03:00:50.117Z,67.53
2022-09-30T03:03:28.357Z,67.51
2022-09-30T03:06:06.191Z,67.65
2022-09-30T03:08:39.746Z,67.77
2022-09-30T03:11:16.874Z,67.70
2022-09-30T03:14:16.044Z,67.70
2022-09-30T03:17:11.801Z,67.64
2022-09-30T03:20:04.347Z,67.86
2022-09-30T03:23:21.369Z,68.04
2022-09-30T03:26:06.493Z,68.05
2022-09-30T03:28:48.229Z,68.12
2022-09-30T03:31:31.009Z,67.98
2022-09-30T03:34:18.911Z,67.75
2022-09-30T03:37:04.825Z,67.63
2022-09-30T03:39:54.792Z,67.73
2022-09-30T03:42:39.142Z,67.77
2022-09-30T03:45:21.367Z,67.77
2022-09-30T03:47:58.752Z,67.93
2022-09-30T03:50:39.125Z,67.77
2022-09-30T03:53:16.997Z,67.93
2022-09-30T03:55:53.184Z,67.96
2022-09-30T03:58:30.637Z,67.94
2022-09-30T04:01:04.594Z,67.99
2022-09-30T04:03:37.900Z,68.01
2022-09-30T04:06:32.007Z,67.96
2022-09-30T04:09:05.521Z,67.96
2022-09-30T04:11:42.728Z,67.98
2022-09-30T04:14:19.193Z,68.00
2022-09-30T04:16:56.088Z,68.16
2022-09-30T04:19:29.937Z,68.20
2022-09-30T04:22:03.818Z,68.12
2022-09-30T04:24:40.960Z,68.01
2022-09-30T04:27:17.826Z,67.63
2022-09-30T04:29:54.147Z,67.62
2022-09-30T04:32:29.210Z,67.57
2022-09-30T04:35:03.097Z,67.63
2022-09-30T04:37:36.810Z,67.77
2022-09-30T04:40:12.276Z,67.89
2022-09-30T04:42:46.006Z,68.09
2022-09-30T04:45:20.704Z,68.17
2022-09-30T04:48:07.224Z,68.27
2022-09-30T04:50:44.742Z,68.28
2022-09-30T04:53:21.578Z,68.26
2022-09-30T04:56:03.779Z,68.24
2022-09-30T04:58:37.791Z,68.07
2022-09-30T05:01:13.442Z,68.31
2022-09-30T05:03:49.176Z,68.45
2022-09-30T05:06:22.874Z,68.64
2022-09-30T05:09:16.706Z,68.58
2022-09-30T05:11:53.862Z,68.95
2022-09-30T05:14:30.437Z,68.97
2022-09-30T05:17:06.755Z,68.67
2022-09-30T05:19:50.156Z,68.65
2022-09-30T05:22:27.241Z,68.68
2022-09-30T05:25:04.192Z,68.66
2022-09-30T05:27:37.896Z,68.67
2022-09-30T05:30:15.141Z,68.59
2022-09-30T05:32:48.638Z,68.74
2022-09-30T05:35:24.729Z,68.98
2022-09-30T05:38:07.110Z,69.05
2022-09-30T05:40:45.584Z,69.18
2022-09-30T05:43:30.641Z,69.47
2022-09-30T05:46:03.923Z,69.67
2022-09-30T05:48:40.023Z,69.79
2022-09-30T05:51:19.906Z,70.04
2022-09-30T05:53:53.458Z,70.09
2022-09-30T05:56:27.047Z,70.14
2022-09-30T05:59:03.769Z,70.07
2022-09-30T06:01:37.926Z,69.99
2022-09-30T06:04:11.702Z,70.06
2022-09-30T06:06:49.026Z,70.06
2022-09-30T06:09:22.927Z,70.04
2022-09-30T06:11:58.487Z,70.06
2022-09-30T06:14:39.693Z,70.21
2022-09-30T06:17:18.979Z,70.33
2022-09-30T06:19:55.793Z,70.25
2022-09-30T06:22:39.268Z,69.95
2022-09-30T06:25:13.341Z,70.15
2022-09-30T06:27:49.304Z,70.12
2022-09-30T06:30:35.196Z,70.20
2022-09-30T06:33:19.992Z,70.25
2022-09-30T06:35:54.257Z,70.12
2022-09-30T06:38:30.803Z,69.96
2022-09-30T06:41:08.026Z,69.51
2022-09-30T06:43:56.586Z,69.81
2022-09-30T06:46:52.577Z,70.11
2022-09-30T06:49:44.152Z,70.30
2022-09-30T06:52:23.457Z,70.46
2022-09-30T06:55:07.070Z,70.70
2022-09-30T06:57:44.047Z,70.20
2022-09-30T07:00:18.167Z,69.77
2022-09-30T07:02:51.751Z,69.61
2022-09-30T07:05:26.852Z,69.87
2022-09-30T07:08:00.738Z,69.43
2022-09-30T07:10:34.913Z,68.85
2022-09-30T07:13:12.664Z,68.31
2022-09-30T07:15:46.900Z,67.73
2022-09-30T07:18:28.171Z,67.66
2022-09-30T07:21:06.136Z,67.98
2022-09-30T07:23:45.863Z,72.68
2022-09-30T07:26:24.173Z,71.63
2022-09-30T07:29:01.609Z,68.97
2022-09-30T07:31:36.062Z,67.00
2022-09-30T07:34:10.751Z,64.16
2022-09-30T07:36:45.879Z,60.04
2022-09-30T07:39:19.365Z,58.83
2022-09-30T07:41:55.057Z,58.92
2022-09-30T07:44:29.674Z,59.62
2022-09-30T07:47:03.550Z,59.29
2022-09-30T07:49:37.760Z,58.30
2022-09-30T07:52:12.734Z,56.79
2022-09-30T07:54:50.409Z,55.55
2022-09-30T07:57:28.383Z,56.74
2022-09-30T08:00:29.790Z,56.55
2022-09-30T08:03:01.890Z,56.81
2022-09-30T08:05:40.499Z,57.15
2022-09-30T08:08:14.138Z,58.05
2022-09-30T08:10:48.341Z,58.45
2022-09-30T08:13:42.551Z,58.56
2022-09-30T08:16:16.002Z,58.57
2022-09-30T08:18:50.162Z,59.02
2022-09-30T08:21:23.956Z,59.12
2022-09-30T08:23:57.291Z,58.54
2022-09-30T08:26:33.076Z,59.26
2022-09-30T08:29:07.748Z,60.11
2022-09-30T08:31:41.459Z,60.47
2022-09-30T08:34:15.561Z,60.59
2022-09-30T08:36:49.089Z,60.52
2022-09-30T08:39:23.051Z,60.70
2022-09-30T08:42:35.968Z,61.11
2022-09-30T08:45:27.351Z,60.96
2022-09-30T08:48:10.138Z,61.21
2022-09-30T08:50:58.237Z,61.57
2022-09-30T08:53:34.796Z,61.78
2022-09-30T08:56:09.177Z,62.04
2022-09-30T08:58:47.547Z,62.60
2022-09-30T09:01:31.444Z,62.70
2022-09-30T09:04:07.143Z,62.72
2022-09-30T09:06:48.224Z,62.84
2022-09-30T09:09:49.883Z,62.96
2022-09-30T09:12:38.954Z,63.05
2022-09-30T09:15:33.041Z,63.02
2022-09-30T09:18:34.907Z,62.50
2022-09-30T09:21:22.340Z,62.42
2022-09-30T09:23:59.700Z,62.66
2022-09-30T09:26:37.600Z,62.46
2022-09-30T09:29:27.792Z,62.65
2022-09-30T09:32:02.484Z,63.29
2022-09-30T09:34:38.287Z,63.47
2022-09-30T09:37:45.058Z,62.86
2022-09-30T09:40:28.986Z,63.22
2022-09-30T09:43:15.841Z,62.98
2022-09-30T09:45:58.852Z,62.47
2022-09-30T09:48:36.486Z,62.88
2022-09-30T09:51:27.152Z,63.12
2022-09-30T09:54:05.693Z,63.43
2022-09-30T09:56:39.098Z,63.66
2022-09-30T09:59:15.266Z,63.31
2022-09-30T10:01:52.611Z,62.76
2022-09-30T10:04:27.997Z,62.18
2022-09-30T10:07:03.231Z,62.28
2022-09-30T10:09:38.434Z,62.48
2022-09-30T10:12:32.420Z,62.28
2022-09-30T10:15:23.107Z,61.28
2022-09-30T10:18:01.171Z,61.38
2022-09-30T10:20:38.072Z,61.70
2022-09-30T10:23:34.116Z,61.82
2022-09-30T10:26:19.693Z,61.82
2022-09-30T10:28:54.771Z,61.60
2022-09-30T10:31:31.938Z,61.54
2022-09-30T10:34:19.772Z,61.28
2022-09-30T10:36:54.295Z,61.14
2022-09-30T10:39:34.299Z,60.93
2022-09-30T10:42:11.715Z,60.26
2022-09-30T10:45:02.435Z,60.35
2022-09-30T10:47:37.550Z,60.66
2022-09-30T10:50:17.498Z,60.90
2022-09-30T10:52:56.866Z,60.43
2022-09-30T10:55:36.574Z,60.60
2022-09-30T10:58:31.085Z,60.51
2022-09-30T11:01:13.185Z,60.10
2022-09-30T11:04:02.307Z,60.10
2022-09-30T11:06:39.342Z,59.29
2022-09-30T11:09:17.822Z,59.36
2022-09-30T11:11:56.950Z,59.45
2022-09-30T11:14:37.263Z,59.51
2022-09-30T11:17:22.772Z,59.37
2022-09-30T11:20:07.189Z,59.44
2022-09-30T11:22:49.413Z,59.51
2022-09-30T11:25:29.781Z,59.12
2022-09-30T11:28:33.893Z,59.16
2022-09-30T11:31:18.170Z,59.24
2022-09-30T11:34:09.741Z,59.15
2022-09-30T11:36:51.979Z,59.34
2022-09-30T11:39:49.777Z,59.31
2022-09-30T11:42:32.872Z,59.43
2022-09-30T11:45:28.864Z,59.53
2022-09-30T11:48:31.874Z,59.51
2022-09-30T11:51:16.078Z,59.68
2022-09-30T11:53:57.030Z,59.51
2022-09-30T11:56:40.947Z,59.46
2022-09-30T11:59:22.754Z,59.47
2022-09-30T12:02:01.437Z,59.35
2022-09-30T12:04:40.949Z,59.20
2022-09-30T12:07:42.946Z,59.23
2022-09-30T12:10:27.451Z,59.18
2022-09-30T12:13:06.930Z,59.35
2022-09-30T12:15:42.383Z,59.21
2022-09-30T12:18:19.861Z,59.20
2022-09-30T12:20:57.023Z,59.08
2022-09-30T12:23:44.058Z,59.03
2022-09-30T12:26:18.905Z,59.09
2022-09-30T12:29:15.341Z,59.06
2022-09-30T12:32:16.430Z,58.96
2022-09-30T12:35:04.436Z,59.00
2022-09-30T12:37:53.257Z,58.63
2022-09-30T12:40:51.556Z,58.63
2022-09-30T12:43:45.180Z,58.45
2022-09-30T12:46:23.969Z,58.42
2022-09-30T12:49:02.208Z,58.70
2022-09-30T12:51:44.636Z,58.18
2022-09-30T12:54:23.789Z,58.44
2022-09-30T12:57:01.529Z,58.91
2022-09-30T12:59:37.872Z,58.70
2022-09-30T13:02:26.399Z,58.56
2022-09-30T13:05:38.446Z,58.36
2022-09-30T13:08:39.213Z,58.46
2022-09-30T13:11:44.939Z,58.51
2022-09-30T13:14:33.263Z,58.27
2022-09-30T13:17:30.174Z,58.30
2022-09-30T13:20:04.080Z,57.69
2022-09-30T13:22:46.714Z,57.80
2022-09-30T13:25:20.641Z,57.73
2022-09-30T13:31:19.550Z,58.06
2022-09-30T13:34:12.052Z,58.00
2022-09-30T13:37:01.835Z,57.85
2022-09-30T13:39:45.980Z,57.75
2022-09-30T13:42:45.976Z,57.67
2022-09-30T13:45:23.209Z,58.04
2022-09-30T13:48:11.359Z,58.26
2022-09-30T13:50:53.956Z,58.57
2022-09-30T13:53:35.131Z,58.44
2022-09-30T13:56:14.836Z,58.08
2022-09-30T13:59:19.909Z,57.98
2022-09-30T14:02:22.582Z,57.91
2022-09-30T14:05:15.823Z,56.90
2022-09-30T14:08:06.983Z,56.43
2022-09-30T14:10:58.630Z,56.22
2022-09-30T14:13:51.400Z,56.15
2022-09-30T14:16:57.249Z,56.15
2022-09-30T14:19:58.153Z,56.37
2022-09-30T14:22:34.107Z,56.15
2022-09-30T14:25:15.353Z,56.01
2022-09-30T14:28:05.154Z,55.98
2022-09-30T14:31:04.376Z,55.87
2022-09-30T14:33:39.902Z,55.77
2022-09-30T14:36:18.465Z,56.08
2022-09-30T14:38:56.134Z,56.01
2022-09-30T14:41:31.774Z,56.09
2022-09-30T14:44:08.499Z,56.30
2022-09-30T14:46:47.554Z,56.67
2022-09-30T14:49:21.419Z,56.75
2022-09-30T14:51:55.348Z,56.60
2022-09-30T14:54:30.450Z,56.89
2022-09-30T14:57:18.419Z,56.87
2022-09-30T14:59:52.085Z,56.89
2022-09-30T15:02:25.374Z,56.95
2022-09-30T15:05:01.712Z,56.98
2022-09-30T15:07:35.679Z,56.96
2022-09-30T15:10:19.085Z,56.99
2022-09-30T15:12:55.535Z,57.06
2022-09-30T15:15:40.936Z,57.17
2022-09-30T15:18:36.042Z,57.30
2022-09-30T15:21:12.844Z,57.46
2022-09-30T15:23:51.903Z,57.61
2022-09-30T15:26:27.432Z,57.54
2022-09-30T15:29:00.922Z,57.70
2022-09-30T15:31:36.132Z,57.57
2022-09-30T15:34:21.776Z,57.81
2022-09-30T15:37:07.029Z,57.68
2022-09-30T15:40:00.543Z,57.66
2022-09-30T15:42:38.567Z,57.88
2022-09-30T15:45:35.298Z,57.94
2022-09-30T15:48:29.241Z,58.12
2022-09-30T15:51:23.550Z,58.14
2022-09-30T15:54:00.818Z,58.36
2022-09-30T15:56:39.110Z,58.56
2022-09-30T15:59:22.749Z,58.66
2022-09-30T16:02:00.112Z,58.75
2022-09-30T16:04:33.787Z,58.74
2022-09-30T16:07:12.969Z,58.89
2022-09-30T16:09:50.764Z,59.01
2022-09-30T16:12:28.466Z,59.01
2022-09-30T16:15:10.262Z,59.16
2022-09-30T16:17:50.342Z,59.27
2022-09-30T16:20:27.118Z,59.42
2022-09-30T16:23:02.922Z,59.10
2022-09-30T16:25:37.307Z,59.19
2022-09-30T16:28:15.421Z,59.24
2022-09-30T16:30:51.579Z,59.22
2022-09-30T16:33:25.105Z,59.08
2022-09-30T16:35:58.910Z,59.26
2022-09-30T16:38:32.531Z,59.32
2022-09-30T16:41:07.475Z,59.44
2022-09-30T16:43:40.946Z,59.67
2022-09-30T16:46:15.194Z,59.66
2022-09-30T16:48:48.991Z,59.70
2022-09-30T16:51:22.493Z,59.85
2022-09-30T16:53:56.309Z,59.79
2022-09-30T16:56:31.763Z,59.76
2022-09-30T16:59:15.448Z,59.80
2022-09-30T17:01:49.275Z,59.92
2022-09-30T17:04:39.077Z,60.06
2022-09-30T17:07:15.415Z,60.18
2022-09-30T17:10:14.533Z,60.09
2022-09-30T17:12:52.314Z,60.20
2022-09-30T17:15:29.496Z,60.44
2022-09-30T17:18:08.666Z,60.72
2022-09-30T17:20:54.302Z,60.83
2022-09-30T17:23:29.358Z,60.81
2022-09-30T17:26:07.741Z,61.03
2022-09-30T17:28:50.803Z,61.09
2022-09-30T17:31:24.584Z,60.92
2022-09-30T17:33:58.166Z,61.24
2022-09-30T17:36:32.248Z,61.13
2022-09-30T17:39:08.590Z,61.16
2022-09-30T17:42:00.125Z,61.08
2022-09-30T17:44:34.424Z,61.14
2022-09-30T17:47:07.732Z,60.98
2022-09-30T17:49:41.441Z,60.58
2022-09-30T17:52:23.175Z,60.45
2022-09-30T17:54:57.284Z,60.16
2022-09-30T17:57:32.138Z,60.14
2022-09-30T18:00:06.667Z,60.15
2022-09-30T18:02:42.366Z,60.01
2022-09-30T18:05:17.321Z,59.99
2022-09-30T18:07:50.965Z,60.10
2022-09-30T18:10:24.742Z,59.98
2022-09-30T18:12:59.998Z,60.05
2022-09-30T18:15:33.591Z,60.07
2022-09-30T18:18:09.661Z,59.93
2022-09-30T18:20:51.939Z,60.20
2022-09-30T18:23:28.944Z,60.04
2022-09-30T18:26:02.837Z,60.06
2022-09-30T18:28:41.425Z,60.20
2022-09-30T18:31:21.934Z,60.28
2022-09-30T18:33:55.464Z,60.45
2022-09-30T18:36:32.743Z,60.21
2022-09-30T18:39:06.972Z,60.12
2022-09-30T18:41:45.796Z,60.34
2022-09-30T18:44:19.781Z,60.58
2022-09-30T18:46:57.096Z,60.44
2022-09-30T18:49:30.832Z,60.61
2022-09-30T18:52:04.951Z,60.80
2022-09-30T18:54:38.306Z,60.92
2022-09-30T18:57:11.865Z,60.80
2022-09-30T18:59:57.285Z,61.02
2022-09-30T19:02:32.666Z,61.06
2022-09-30T19:05:06.638Z,61.41
2022-09-30T19:07:40.064Z,61.40
2022-09-30T19:10:14.633Z,61.47
2022-09-30T19:12:48.243Z,61.72
2022-09-30T19:15:23.984Z,61.79
2022-09-30T19:17:57.844Z,61.86
2022-09-30T19:20:31.536Z,61.72
2022-09-30T19:23:06.763Z,61.84
2022-09-30T19:25:44.159Z,62.11
2022-09-30T19:28:21.472Z,62.16
2022-09-30T19:30:56.233Z,62.28
2022-09-30T19:33:29.762Z,62.51
2022-09-30T19:36:14.761Z,62.47
2022-09-30T19:38:50.282Z,62.65
2022-09-30T19:41:31.437Z,62.94
2022-09-30T19:44:05.543Z,62.84
2022-09-30T19:46:42.270Z,63.02
2022-09-30T19:49:16.559Z,62.98
2022-09-30T19:51:54.655Z,62.97
2022-09-30T19:54:38.599Z,63.12
2022-09-30T19:57:14.807Z,63.14
2022-09-30T19:59:48.514Z,63.33
2022-09-30T20:02:22.531Z,63.32
2022-09-30T20:04:55.918Z,63.40
2022-09-30T20:07:30.895Z,63.45
2022-09-30T20:10:05.214Z,63.49
2022-09-30T20:12:39.355Z,63.37
2022-09-30T20:15:33.284Z,63.41
2022-09-30T20:18:06.836Z,63.32
2022-09-30T20:20:45.896Z,63.26
2022-09-30T20:23:32.451Z,63.41
2022-09-30T20:26:06.453Z,63.67
2022-09-30T20:28:39.776Z,63.70
2022-09-30T20:31:16.861Z,63.90
2022-09-30T20:33:55.450Z,63.96
2022-09-30T20:36:30.499Z,63.95
2022-09-30T20:39:07.387Z,63.94
2022-09-30T20:41:42.168Z,64.00
2022-09-30T20:44:21.192Z,64.30
2022-09-30T20:46:58.247Z,64.35
2022-09-30T20:49:32.855Z,64.40
2022-09-30T20:52:09.660Z,64.50
2022-09-30T20:54:46.276Z,64.49
2022-09-30T20:57:30.431Z,64.54
2022-09-30T21:00:06.140Z,64.59
2022-09-30T21:02:39.363Z,64.65
2022-09-30T21:05:13.352Z,64.78
2022-09-30T21:07:46.679Z,64.89
2022-09-30T21:10:20.167Z,65.03
2022-09-30T21:12:54.142Z,65.07
2022-09-30T21:15:31.916Z,65.19
2022-09-30T21:18:06.067Z,65.18
2022-09-30T21:20:43.053Z,65.16
2022-09-30T21:23:20.105Z,65.32
2022-09-30T21:25:59.583Z,65.28
2022-09-30T21:28:38.491Z,65.43
2022-09-30T21:31:33.692Z,65.41
2022-09-30T21:34:27.509Z,65.60
2022-09-30T21:37:10.749Z,65.55
2022-09-30T21:39:48.868Z,65.59
2022-09-30T21:42:28.479Z,65.48
2022-09-30T21:45:04.619Z,65.42
2022-09-30T21:48:06.621Z,65.35
2022-09-30T21:50:42.750Z,65.37
2022-09-30T21:53:19.539Z,65.57
2022-09-30T21:55:55.291Z,65.51
2022-09-30T21:58:31.819Z,65.84
2022-09-30T22:01:07.173Z,65.79
2022-09-30T22:03:43.024Z,65.71
2022-09-30T22:06:19.298Z,65.90
2022-09-30T22:09:00.624Z,65.92
2022-09-30T22:11:34.251Z,66.09
2022-09-30T22:14:08.152Z,66.03
2022-09-30T22:16:46.121Z,66.11
2022-09-30T22:19:23.106Z,66.25
2022-09-30T22:21:56.096Z,66.45
2022-09-30T22:24:33.348Z,66.49
2022-09-30T22:27:09.502Z,66.54
2022-09-30T22:29:55.874Z,66.72
2022-09-30T22:32:33.059Z,66.81
2022-09-30T22:35:24.318Z,66.87
2022-09-30T22:38:16.778Z,66.95
2022-09-30T22:40:56.012Z,67.05
2022-09-30T22:43:39.472Z,67.13
2022-09-30T22:46:12.999Z,67.12
2022-09-30T22:48:46.647Z,67.27
2022-09-30T22:51:20.107Z,67.30
2022-09-30T22:53:56.717Z,67.43
2022-09-30T22:56:30.580Z,67.60
2022-09-30T22:59:04.325Z,67.73
2022-09-30T23:01:38.204Z,67.85
2022-09-30T23:04:11.842Z,67.94
2022-09-30T23:06:45.674Z,68.14
2022-09-30T23:09:23.202Z,68.21
2022-09-30T23:11:59.506Z,68.36
2022-09-30T23:14:33.625Z,68.48
2022-09-30T23:17:10.812Z,68.64
2022-09-30T23:19:47.781Z,68.70
2022-09-30T23:22:21.541Z,68.92
2022-09-30T23:24:55.106Z,69.01
2022-09-30T23:27:28.666Z,69.11
2022-09-30T23:30:02.051Z,69.16
2022-09-30T23:32:35.912Z,69.07
2022-09-30T23:35:14.436Z,69.19
2022-09-30T23:37:51.034Z,69.02
2022-09-30T23:40:24.684Z,69.12
2022-09-30T23:42:58.182Z,69.16
2022-09-30T23:45:31.826Z,69.15
2022-09-30T23:48:05.946Z,69.22
2022-09-30T23:50:51.822Z,69.16
2022-09-30T23:53:26.237Z,69.30
2022-09-30T23:56:04.731Z,69.32
2022-09-30T23:58:39.386Z,69.45
